sensor_id;sensor_type;location;lat;lon;timestamp;P1;durP1;ratioP1;P2;durP2;ratioP2
64842;SDS011;51310;52.198;5.422;2022-07-04T00:01:01;7.67;;;2.70;;
64842;SDS011;51310;52.198;5.422;2022-07-04T00:03:27;4.90;;;2.17;;
64842;SDS011;51310;52.198;5.422;2022-07-04T00:05:52;4.20;;;1.90;;
64842;SDS011;51310;52.198;5.422;2022-07-04T00:08:18;9.20;;;2.50;;
64842;SDS011;51310;52.198;5.422;2022-07-04T00:10:44;5.45;;;1.92;;
64842;SDS011;51310;52.198;5.422;2022-07-04T00:13:10;6.55;;;2.60;;
64842;SDS011;51310;52.198;5.422;2022-07-04T00:15:36;6.68;;;2.78;;
64842;SDS011;51310;52.198;5.422;2022-07-04T00:18:02;9.27;;;2.67;;
64842;SDS011;51310;52.198;5.422;2022-07-04T00:20:28;5.18;;;2.00;;
64842;SDS011;51310;52.198;5.422;2022-07-04T00:22:54;7.27;;;2.97;;
64842;SDS011;51310;52.198;5.422;2022-07-04T00:25:20;6.60;;;2.40;;
64842;SDS011;51310;52.198;5.422;2022-07-04T00:27:46;9.10;;;2.17;;
64842;SDS011;51310;52.198;5.422;2022-07-04T00:30:12;6.18;;;2.17;;
64842;SDS011;51310;52.198;5.422;2022-07-04T00:32:38;7.30;;;2.17;;
64842;SDS011;51310;52.198;5.422;2022-07-04T00:35:04;3.75;;;2.10;;
64842;SDS011;51310;52.198;5.422;2022-07-04T00:37:31;7.88;;;2.83;;
64842;SDS011;51310;52.198;5.422;2022-07-04T00:39:57;6.57;;;2.03;;
64842;SDS011;51310;52.198;5.422;2022-07-04T00:42:23;4.63;;;1.93;;
64842;SDS011;51310;52.198;5.422;2022-07-04T00:44:49;6.68;;;2.20;;
64842;SDS011;51310;52.198;5.422;2022-07-04T00:47:14;6.15;;;1.90;;
64842;SDS011;51310;52.198;5.422;2022-07-04T00:49:40;8.45;;;2.20;;
64842;SDS011;51310;52.198;5.422;2022-07-04T00:52:06;5.40;;;2.20;;
64842;SDS011;51310;52.198;5.422;2022-07-04T00:54:32;6.53;;;2.22;;
64842;SDS011;51310;52.198;5.422;2022-07-04T00:56:59;4.40;;;1.63;;
64842;SDS011;51310;52.198;5.422;2022-07-04T00:59:27;5.03;;;2.10;;
64842;SDS011;51310;52.198;5.422;2022-07-04T01:01:53;4.97;;;1.90;;
64842;SDS011;51310;52.198;5.422;2022-07-04T01:04:20;6.97;;;2.73;;
64842;SDS011;51310;52.198;5.422;2022-07-04T01:06:46;6.05;;;1.92;;
64842;SDS011;51310;52.198;5.422;2022-07-04T01:09:12;7.22;;;2.05;;
64842;SDS011;51310;52.198;5.422;2022-07-04T01:11:38;8.70;;;2.22;;
64842;SDS011;51310;52.198;5.422;2022-07-04T01:14:05;6.57;;;2.03;;
64842;SDS011;51310;52.198;5.422;2022-07-04T01:16:31;5.30;;;2.08;;
64842;SDS011;51310;52.198;5.422;2022-07-04T01:18:58;4.93;;;1.80;;
64842;SDS011;51310;52.198;5.422;2022-07-04T01:21:24;6.13;;;2.60;;
64842;SDS011;51310;52.198;5.422;2022-07-04T01:23:50;3.63;;;1.80;;
64842;SDS011;51310;52.198;5.422;2022-07-04T01:26:17;6.65;;;1.70;;
64842;SDS011;51310;52.198;5.422;2022-07-04T01:28:43;4.20;;;1.80;;
64842;SDS011;51310;52.198;5.422;2022-07-04T01:31:10;5.07;;;1.65;;
64842;SDS011;51310;52.198;5.422;2022-07-04T01:33:36;6.28;;;2.25;;
64842;SDS011;51310;52.198;5.422;2022-07-04T01:36:03;5.05;;;2.08;;
64842;SDS011;51310;52.198;5.422;2022-07-04T01:38:29;5.40;;;2.00;;
64842;SDS011;51310;52.198;5.422;2022-07-04T01:40:55;6.18;;;2.40;;
64842;SDS011;51310;52.198;5.422;2022-07-04T01:43:21;7.50;;;2.83;;
64842;SDS011;51310;52.198;5.422;2022-07-04T01:45:47;6.57;;;2.30;;
64842;SDS011;51310;52.198;5.422;2022-07-04T01:48:13;10.00;;;3.13;;
64842;SDS011;51310;52.198;5.422;2022-07-04T01:50:39;6.88;;;2.55;;
64842;SDS011;51310;52.198;5.422;2022-07-04T01:53:06;7.50;;;2.70;;
64842;SDS011;51310;52.198;5.422;2022-07-04T01:55:32;7.15;;;2.78;;
64842;SDS011;51310;52.198;5.422;2022-07-04T01:57:58;5.80;;;2.50;;
64842;SDS011;51310;52.198;5.422;2022-07-04T02:00:25;7.25;;;3.13;;
64842;SDS011;51310;52.198;5.422;2022-07-04T02:03:10;9.23;;;2.85;;
64842;SDS011;51310;52.198;5.422;2022-07-04T02:05:36;7.67;;;2.83;;
64842;SDS011;51310;52.198;5.422;2022-07-04T02:08:03;8.25;;;2.70;;
64842;SDS011;51310;52.198;5.422;2022-07-04T02:10:33;6.40;;;2.80;;
64842;SDS011;51310;52.198;5.422;2022-07-04T02:13:00;6.93;;;3.20;;
64842;SDS011;51310;52.198;5.422;2022-07-04T02:15:27;6.53;;;3.40;;
64842;SDS011;51310;52.198;5.422;2022-07-04T02:18:06;8.68;;;4.93;;
64842;SDS011;51310;52.198;5.422;2022-07-04T02:20:37;11.20;;;5.03;;
64842;SDS011;51310;52.198;5.422;2022-07-04T02:23:03;8.85;;;3.22;;
64842;SDS011;51310;52.198;5.422;2022-07-04T02:25:30;10.98;;;2.97;;
64842;SDS011;51310;52.198;5.422;2022-07-04T02:27:57;7.28;;;2.88;;
64842;SDS011;51310;52.198;5.422;2022-07-04T02:30:23;5.40;;;3.35;;
64842;SDS011;51310;52.198;5.422;2022-07-04T02:32:49;6.25;;;3.25;;
64842;SDS011;51310;52.198;5.422;2022-07-04T02:35:16;7.30;;;3.60;;
64842;SDS011;51310;52.198;5.422;2022-07-04T02:37:42;6.85;;;3.28;;
64842;SDS011;51310;52.198;5.422;2022-07-04T02:40:09;7.80;;;3.50;;
64842;SDS011;51310;52.198;5.422;2022-07-04T02:42:35;6.63;;;3.30;;
64842;SDS011;51310;52.198;5.422;2022-07-04T02:45:02;7.25;;;3.20;;
64842;SDS011;51310;52.198;5.422;2022-07-04T02:47:30;6.57;;;3.85;;
64842;SDS011;51310;52.198;5.422;2022-07-04T02:49:56;9.97;;;3.20;;
64842;SDS011;51310;52.198;5.422;2022-07-04T02:52:22;7.55;;;3.80;;
64842;SDS011;51310;52.198;5.422;2022-07-04T02:54:48;5.30;;;3.15;;
64842;SDS011;51310;52.198;5.422;2022-07-04T02:57:14;7.50;;;3.50;;
64842;SDS011;51310;52.198;5.422;2022-07-04T02:59:40;4.77;;;3.70;;
64842;SDS011;51310;52.198;5.422;2022-07-04T03:02:06;5.70;;;3.78;;
64842;SDS011;51310;52.198;5.422;2022-07-04T03:04:32;6.28;;;3.40;;
64842;SDS011;51310;52.198;5.422;2022-07-04T03:06:58;8.83;;;4.23;;
64842;SDS011;51310;52.198;5.422;2022-07-04T03:09:24;7.10;;;3.43;;
64842;SDS011;51310;52.198;5.422;2022-07-04T03:11:53;6.88;;;3.95;;
64842;SDS011;51310;52.198;5.422;2022-07-04T03:14:19;7.47;;;3.47;;
64842;SDS011;51310;52.198;5.422;2022-07-04T03:16:46;6.68;;;3.60;;
64842;SDS011;51310;52.198;5.422;2022-07-04T03:19:12;7.43;;;3.90;;
64842;SDS011;51310;52.198;5.422;2022-07-04T03:21:38;8.73;;;4.10;;
64842;SDS011;51310;52.198;5.422;2022-07-04T03:24:04;8.15;;;3.70;;
64842;SDS011;51310;52.198;5.422;2022-07-04T03:26:31;9.45;;;4.35;;
64842;SDS011;51310;52.198;5.422;2022-07-04T03:28:58;7.67;;;3.90;;
64842;SDS011;51310;52.198;5.422;2022-07-04T03:31:26;9.45;;;4.03;;
64842;SDS011;51310;52.198;5.422;2022-07-04T03:33:54;7.63;;;4.00;;
64842;SDS011;51310;52.198;5.422;2022-07-04T03:36:20;9.23;;;4.13;;
64842;SDS011;51310;52.198;5.422;2022-07-04T03:38:47;8.38;;;4.25;;
64842;SDS011;51310;52.198;5.422;2022-07-04T03:41:14;8.13;;;3.95;;
64842;SDS011;51310;52.198;5.422;2022-07-04T03:43:40;8.87;;;4.77;;
64842;SDS011;51310;52.198;5.422;2022-07-04T03:46:06;10.02;;;4.05;;
64842;SDS011;51310;52.198;5.422;2022-07-04T03:48:32;9.02;;;4.55;;
64842;SDS011;51310;52.198;5.422;2022-07-04T03:50:58;9.97;;;4.40;;
64842;SDS011;51310;52.198;5.422;2022-07-04T03:53:24;7.15;;;3.63;;
64842;SDS011;51310;52.198;5.422;2022-07-04T03:55:50;8.93;;;4.30;;
64842;SDS011;51310;52.198;5.422;2022-07-04T03:58:16;7.10;;;4.27;;
64842;SDS011;51310;52.198;5.422;2022-07-04T04:00:42;8.07;;;3.90;;
64842;SDS011;51310;52.198;5.422;2022-07-04T04:03:09;8.73;;;4.40;;
64842;SDS011;51310;52.198;5.422;2022-07-04T04:05:53;9.38;;;4.70;;
64842;SDS011;51310;52.198;5.422;2022-07-04T04:08:20;7.07;;;4.65;;
64842;SDS011;51310;52.198;5.422;2022-07-04T04:10:46;7.43;;;4.85;;
64842;SDS011;51310;52.198;5.422;2022-07-04T04:13:14;9.93;;;4.93;;
64842;SDS011;51310;52.198;5.422;2022-07-04T04:15:40;8.07;;;4.90;;
64842;SDS011;51310;52.198;5.422;2022-07-04T04:18:06;11.57;;;5.28;;
64842;SDS011;51310;52.198;5.422;2022-07-04T04:20:32;8.65;;;5.28;;
64842;SDS011;51310;52.198;5.422;2022-07-04T04:22:58;8.60;;;5.10;;
64842;SDS011;51310;52.198;5.422;2022-07-04T04:25:24;12.90;;;5.85;;
64842;SDS011;51310;52.198;5.422;2022-07-04T04:27:49;10.20;;;5.60;;
64842;SDS011;51310;52.198;5.422;2022-07-04T04:30:16;9.60;;;5.55;;
64842;SDS011;51310;52.198;5.422;2022-07-04T04:32:42;9.65;;;5.55;;
64842;SDS011;51310;52.198;5.422;2022-07-04T04:35:08;10.80;;;6.43;;
64842;SDS011;51310;52.198;5.422;2022-07-04T04:37:34;8.50;;;5.88;;
64842;SDS011;51310;52.198;5.422;2022-07-04T04:40:00;10.90;;;5.77;;
64842;SDS011;51310;52.198;5.422;2022-07-04T04:42:26;10.53;;;5.70;;
64842;SDS011;51310;52.198;5.422;2022-07-04T04:44:52;10.53;;;5.87;;
64842;SDS011;51310;52.198;5.422;2022-07-04T04:47:17;10.63;;;6.63;;
64842;SDS011;51310;52.198;5.422;2022-07-04T04:49:43;11.05;;;5.85;;
64842;SDS011;51310;52.198;5.422;2022-07-04T04:52:09;8.68;;;5.95;;
64842;SDS011;51310;52.198;5.422;2022-07-04T04:54:36;10.15;;;6.25;;
64842;SDS011;51310;52.198;5.422;2022-07-04T04:57:02;9.77;;;5.75;;
64842;SDS011;51310;52.198;5.422;2022-07-04T04:59:29;7.38;;;5.53;;
64842;SDS011;51310;52.198;5.422;2022-07-04T05:01:57;8.60;;;5.78;;
64842;SDS011;51310;52.198;5.422;2022-07-04T05:04:23;8.68;;;5.32;;
64842;SDS011;51310;52.198;5.422;2022-07-04T05:06:49;8.85;;;5.93;;
64842;SDS011;51310;52.198;5.422;2022-07-04T05:09:17;10.57;;;5.75;;
64842;SDS011;51310;52.198;5.422;2022-07-04T05:11:44;10.52;;;5.53;;
64842;SDS011;51310;52.198;5.422;2022-07-04T05:14:11;14.52;;;6.13;;
64842;SDS011;51310;52.198;5.422;2022-07-04T05:16:39;7.85;;;5.00;;
64842;SDS011;51310;52.198;5.422;2022-07-04T05:19:05;8.45;;;4.30;;
64842;SDS011;51310;52.198;5.422;2022-07-04T05:21:30;12.55;;;5.28;;
64842;SDS011;51310;52.198;5.422;2022-07-04T05:23:57;7.83;;;4.60;;
64842;SDS011;51310;52.198;5.422;2022-07-04T05:26:23;8.20;;;4.40;;
64842;SDS011;51310;52.198;5.422;2022-07-04T05:28:49;7.70;;;4.13;;
64842;SDS011;51310;52.198;5.422;2022-07-04T05:31:15;9.02;;;4.22;;
64842;SDS011;51310;52.198;5.422;2022-07-04T05:33:41;10.10;;;4.50;;
64842;SDS011;51310;52.198;5.422;2022-07-04T05:36:07;10.15;;;3.83;;
64842;SDS011;51310;52.198;5.422;2022-07-04T05:38:33;9.48;;;3.53;;
64842;SDS011;51310;52.198;5.422;2022-07-04T05:41:00;6.80;;;3.83;;
64842;SDS011;51310;52.198;5.422;2022-07-04T05:43:27;8.48;;;3.35;;
64842;SDS011;51310;52.198;5.422;2022-07-04T05:45:53;7.82;;;3.60;;
64842;SDS011;51310;52.198;5.422;2022-07-04T05:48:19;9.53;;;2.77;;
64842;SDS011;51310;52.198;5.422;2022-07-04T05:50:45;8.57;;;3.40;;
64842;SDS011;51310;52.198;5.422;2022-07-04T05:53:11;11.53;;;2.87;;
64842;SDS011;51310;52.198;5.422;2022-07-04T05:55:37;6.20;;;2.33;;
64842;SDS011;51310;52.198;5.422;2022-07-04T05:58:03;7.80;;;2.60;;
64842;SDS011;51310;52.198;5.422;2022-07-04T06:00:29;6.93;;;2.90;;
64842;SDS011;51310;52.198;5.422;2022-07-04T06:02:55;9.32;;;3.08;;
64842;SDS011;51310;52.198;5.422;2022-07-04T06:05:20;10.95;;;3.13;;
64842;SDS011;51310;52.198;5.422;2022-07-04T06:07:46;7.38;;;2.85;;
64842;SDS011;51310;52.198;5.422;2022-07-04T06:10:13;9.10;;;3.38;;
64842;SDS011;51310;52.198;5.422;2022-07-04T06:12:39;11.00;;;4.07;;
64842;SDS011;51310;52.198;5.422;2022-07-04T06:15:06;11.45;;;3.20;;
64842;SDS011;51310;52.198;5.422;2022-07-04T06:17:34;11.15;;;3.22;;
64842;SDS011;51310;52.198;5.422;2022-07-04T06:20:02;8.88;;;3.15;;
64842;SDS011;51310;52.198;5.422;2022-07-04T06:22:38;7.32;;;3.25;;
64842;SDS011;51310;52.198;5.422;2022-07-04T06:25:10;6.78;;;3.03;;
64842;SDS011;51310;52.198;5.422;2022-07-04T06:27:43;7.43;;;3.20;;
64842;SDS011;51310;52.198;5.422;2022-07-04T06:30:12;9.65;;;3.50;;
64842;SDS011;51310;52.198;5.422;2022-07-04T06:32:47;10.18;;;3.35;;
64842;SDS011;51310;52.198;5.422;2022-07-04T06:35:22;12.40;;;3.78;;
64842;SDS011;51310;52.198;5.422;2022-07-04T06:38:14;16.77;;;3.87;;
64842;SDS011;51310;52.198;5.422;2022-07-04T06:40:50;12.40;;;3.83;;
64842;SDS011;51310;52.198;5.422;2022-07-04T06:43:23;8.52;;;3.80;;
64842;SDS011;51310;52.198;5.422;2022-07-04T06:45:50;10.68;;;3.97;;
64842;SDS011;51310;52.198;5.422;2022-07-04T06:48:18;12.48;;;3.45;;
64842;SDS011;51310;52.198;5.422;2022-07-04T06:50:44;11.40;;;3.97;;
64842;SDS011;51310;52.198;5.422;2022-07-04T06:53:10;12.52;;;3.50;;
64842;SDS011;51310;52.198;5.422;2022-07-04T06:55:40;12.55;;;3.75;;
64842;SDS011;51310;52.198;5.422;2022-07-04T06:58:08;10.05;;;3.67;;
64842;SDS011;51310;52.198;5.422;2022-07-04T07:00:35;15.02;;;3.95;;
64842;SDS011;51310;52.198;5.422;2022-07-04T07:03:02;11.32;;;3.65;;
64842;SDS011;51310;52.198;5.422;2022-07-04T07:05:29;9.77;;;3.60;;
64842;SDS011;51310;52.198;5.422;2022-07-04T07:07:55;10.63;;;4.35;;
64842;SDS011;51310;52.198;5.422;2022-07-04T07:10:21;9.90;;;4.18;;
64842;SDS011;51310;52.198;5.422;2022-07-04T07:12:47;8.50;;;2.90;;
64842;SDS011;51310;52.198;5.422;2022-07-04T07:15:13;10.50;;;3.70;;
64842;SDS011;51310;52.198;5.422;2022-07-04T07:17:39;11.20;;;3.77;;
64842;SDS011;51310;52.198;5.422;2022-07-04T07:20:06;13.68;;;3.50;;
64842;SDS011;51310;52.198;5.422;2022-07-04T07:22:33;9.65;;;3.38;;
64842;SDS011;51310;52.198;5.422;2022-07-04T07:24:59;11.43;;;3.03;;
64842;SDS011;51310;52.198;5.422;2022-07-04T07:27:25;9.10;;;3.10;;
64842;SDS011;51310;52.198;5.422;2022-07-04T07:29:50;11.83;;;3.10;;
64842;SDS011;51310;52.198;5.422;2022-07-04T07:32:16;12.67;;;3.50;;
64842;SDS011;51310;52.198;5.422;2022-07-04T07:34:42;8.80;;;3.43;;
64842;SDS011;51310;52.198;5.422;2022-07-04T07:37:08;10.90;;;2.58;;
64842;SDS011;51310;52.198;5.422;2022-07-04T07:39:34;9.48;;;3.28;;
64842;SDS011;51310;52.198;5.422;2022-07-04T07:42:00;6.80;;;3.20;;
64842;SDS011;51310;52.198;5.422;2022-07-04T07:44:26;9.80;;;3.13;;
64842;SDS011;51310;52.198;5.422;2022-07-04T07:46:52;6.70;;;2.40;;
64842;SDS011;51310;52.198;5.422;2022-07-04T07:49:18;7.87;;;2.40;;
64842;SDS011;51310;52.198;5.422;2022-07-04T07:51:44;8.10;;;2.42;;
64842;SDS011;51310;52.198;5.422;2022-07-04T07:54:10;7.10;;;2.28;;
64842;SDS011;51310;52.198;5.422;2022-07-04T07:56:36;8.23;;;2.08;;
64842;SDS011;51310;52.198;5.422;2022-07-04T07:59:02;12.70;;;2.83;;
64842;SDS011;51310;52.198;5.422;2022-07-04T08:01:28;11.55;;;2.50;;
64842;SDS011;51310;52.198;5.422;2022-07-04T08:03:54;9.52;;;2.20;;
64842;SDS011;51310;52.198;5.422;2022-07-04T08:06:38;6.55;;;2.15;;
64842;SDS011;51310;52.198;5.422;2022-07-04T08:09:05;6.10;;;1.80;;
64842;SDS011;51310;52.198;5.422;2022-07-04T08:11:32;7.47;;;1.80;;
64842;SDS011;51310;52.198;5.422;2022-07-04T08:13:57;5.63;;;1.73;;
64842;SDS011;51310;52.198;5.422;2022-07-04T08:16:23;6.97;;;1.50;;
64842;SDS011;51310;52.198;5.422;2022-07-04T08:18:49;7.80;;;1.92;;
64842;SDS011;51310;52.198;5.422;2022-07-04T08:21:15;3.25;;;1.30;;
64842;SDS011;51310;52.198;5.422;2022-07-04T08:23:41;5.55;;;1.52;;
64842;SDS011;51310;52.198;5.422;2022-07-04T08:26:07;5.33;;;1.97;;
64842;SDS011;51310;52.198;5.422;2022-07-04T08:28:33;3.95;;;1.45;;
64842;SDS011;51310;52.198;5.422;2022-07-04T08:30:59;4.30;;;1.67;;
64842;SDS011;51310;52.198;5.422;2022-07-04T08:33:25;6.82;;;1.48;;
64842;SDS011;51310;52.198;5.422;2022-07-04T08:35:51;4.35;;;1.20;;
64842;SDS011;51310;52.198;5.422;2022-07-04T08:38:18;4.97;;;1.40;;
64842;SDS011;51310;52.198;5.422;2022-07-04T08:40:44;5.00;;;1.20;;
64842;SDS011;51310;52.198;5.422;2022-07-04T08:43:13;6.63;;;1.27;;
64842;SDS011;51310;52.198;5.422;2022-07-04T08:45:40;3.47;;;1.42;;
64842;SDS011;51310;52.198;5.422;2022-07-04T08:48:07;4.40;;;1.20;;
64842;SDS011;51310;52.198;5.422;2022-07-04T08:50:38;3.10;;;1.20;;
64842;SDS011;51310;52.198;5.422;2022-07-04T08:53:13;3.08;;;1.27;;
64842;SDS011;51310;52.198;5.422;2022-07-04T08:55:45;6.55;;;1.45;;
64842;SDS011;51310;52.198;5.422;2022-07-04T08:58:31;4.65;;;1.35;;
64842;SDS011;51310;52.198;5.422;2022-07-04T09:01:05;2.30;;;0.90;;
64842;SDS011;51310;52.198;5.422;2022-07-04T09:03:44;5.20;;;1.20;;
64842;SDS011;51310;52.198;5.422;2022-07-04T09:06:11;4.80;;;1.30;;
64842;SDS011;51310;52.198;5.422;2022-07-04T09:08:38;3.63;;;1.15;;
64842;SDS011;51310;52.198;5.422;2022-07-04T09:11:05;2.38;;;1.33;;
64842;SDS011;51310;52.198;5.422;2022-07-04T09:13:32;3.33;;;0.93;;
64842;SDS011;51310;52.198;5.422;2022-07-04T09:15:59;2.97;;;1.35;;
64842;SDS011;51310;52.198;5.422;2022-07-04T09:18:31;3.60;;;1.10;;
64842;SDS011;51310;52.198;5.422;2022-07-04T09:21:00;3.78;;;1.13;;
64842;SDS011;51310;52.198;5.422;2022-07-04T09:23:35;2.92;;;1.10;;
64842;SDS011;51310;52.198;5.422;2022-07-04T09:26:08;2.88;;;1.10;;
64842;SDS011;51310;52.198;5.422;2022-07-04T09:28:50;3.15;;;1.30;;
64842;SDS011;51310;52.198;5.422;2022-07-04T09:31:24;3.95;;;1.25;;
64842;SDS011;51310;52.198;5.422;2022-07-04T09:33:54;2.65;;;1.25;;
64842;SDS011;51310;52.198;5.422;2022-07-04T09:36:23;2.58;;;1.23;;
64842;SDS011;51310;52.198;5.422;2022-07-04T09:41:50;5.45;;;1.60;;
64842;SDS011;51310;52.198;5.422;2022-07-04T09:44:21;6.18;;;1.20;;
64842;SDS011;51310;52.198;5.422;2022-07-04T09:47:21;3.40;;;1.00;;
64842;SDS011;51310;52.198;5.422;2022-07-04T09:58:01;3.40;;;1.15;;
64842;SDS011;51310;52.198;5.422;2022-07-04T10:00:43;3.53;;;1.13;;
64842;SDS011;51310;52.198;5.422;2022-07-04T10:08:35;3.13;;;1.30;;
64842;SDS011;51310;52.198;5.422;2022-07-04T10:11:04;4.28;;;1.60;;
64842;SDS011;51310;52.198;5.422;2022-07-04T10:13:31;2.87;;;1.60;;
64842;SDS011;51310;52.198;5.422;2022-07-04T10:15:58;4.05;;;1.40;;
64842;SDS011;51310;52.198;5.422;2022-07-04T10:18:25;1.67;;;0.95;;
64842;SDS011;51310;52.198;5.422;2022-07-04T10:20:52;2.03;;;1.20;;
64842;SDS011;51310;52.198;5.422;2022-07-04T10:23:21;2.13;;;1.00;;
64842;SDS011;51310;52.198;5.422;2022-07-04T10:25:51;2.47;;;1.10;;
64842;SDS011;51310;52.198;5.422;2022-07-04T10:28:19;2.78;;;1.15;;
64842;SDS011;51310;52.198;5.422;2022-07-04T10:30:46;2.97;;;0.95;;
64842;SDS011;51310;52.198;5.422;2022-07-04T10:33:21;3.17;;;1.10;;
64842;SDS011;51310;52.198;5.422;2022-07-04T10:35:54;1.98;;;1.10;;
64842;SDS011;51310;52.198;5.422;2022-07-04T10:38:31;1.93;;;0.80;;
64842;SDS011;51310;52.198;5.422;2022-07-04T10:41:04;3.10;;;1.20;;
64842;SDS011;51310;52.198;5.422;2022-07-04T10:48:56;2.20;;;0.90;;
64842;SDS011;51310;52.198;5.422;2022-07-04T10:56:57;1.97;;;0.90;;
64842;SDS011;51310;52.198;5.422;2022-07-04T11:02:34;7.57;;;1.20;;
64842;SDS011;51310;52.198;5.422;2022-07-04T11:17:50;2.13;;;1.10;;
64842;SDS011;51310;52.198;5.422;2022-07-04T11:20:21;3.80;;;1.23;;
64842;SDS011;51310;52.198;5.422;2022-07-04T11:22:49;3.50;;;1.00;;
64842;SDS011;51310;52.198;5.422;2022-07-04T11:25:15;5.70;;;1.55;;
64842;SDS011;51310;52.198;5.422;2022-07-04T11:27:42;2.55;;;0.90;;
64842;SDS011;51310;52.198;5.422;2022-07-04T11:30:08;2.95;;;1.02;;
64842;SDS011;51310;52.198;5.422;2022-07-04T11:32:36;2.80;;;0.90;;
64842;SDS011;51310;52.198;5.422;2022-07-04T11:35:04;3.27;;;1.00;;
64842;SDS011;51310;52.198;5.422;2022-07-04T11:37:32;1.73;;;0.93;;
64842;SDS011;51310;52.198;5.422;2022-07-04T11:39:58;2.85;;;1.15;;
64842;SDS011;51310;52.198;5.422;2022-07-04T11:43:06;3.78;;;1.00;;
64842;SDS011;51310;52.198;5.422;2022-07-04T11:45:52;3.00;;;1.50;;
64842;SDS011;51310;52.198;5.422;2022-07-04T11:50:49;4.13;;;1.25;;
64842;SDS011;51310;52.198;5.422;2022-07-04T11:53:19;1.80;;;1.13;;
64842;SDS011;51310;52.198;5.422;2022-07-04T11:55:52;3.53;;;1.30;;
64842;SDS011;51310;52.198;5.422;2022-07-04T11:58:20;5.10;;;1.17;;
64842;SDS011;51310;52.198;5.422;2022-07-04T12:00:47;2.75;;;1.25;;
64842;SDS011;51310;52.198;5.422;2022-07-04T12:03:13;3.83;;;1.02;;
64842;SDS011;51310;52.198;5.422;2022-07-04T12:05:39;2.40;;;1.20;;
64842;SDS011;51310;52.198;5.422;2022-07-04T12:08:07;2.90;;;1.00;;
64842;SDS011;51310;52.198;5.422;2022-07-04T12:10:33;3.75;;;1.10;;
64842;SDS011;51310;52.198;5.422;2022-07-04T12:13:00;3.10;;;1.15;;
64842;SDS011;51310;52.198;5.422;2022-07-04T12:15:59;2.47;;;1.20;;
64842;SDS011;51310;52.198;5.422;2022-07-04T12:18:25;2.65;;;0.95;;
64842;SDS011;51310;52.198;5.422;2022-07-04T12:21:10;2.88;;;1.17;;
64842;SDS011;51310;52.198;5.422;2022-07-04T12:23:53;4.77;;;1.50;;
64842;SDS011;51310;52.198;5.422;2022-07-04T12:26:20;2.35;;;1.00;;
64842;SDS011;51310;52.198;5.422;2022-07-04T12:28:46;2.15;;;0.93;;
64842;SDS011;51310;52.198;5.422;2022-07-04T12:31:12;2.05;;;1.08;;
64842;SDS011;51310;52.198;5.422;2022-07-04T12:33:38;3.80;;;1.20;;
64842;SDS011;51310;52.198;5.422;2022-07-04T12:36:05;2.45;;;0.82;;
64842;SDS011;51310;52.198;5.422;2022-07-04T12:38:36;1.67;;;0.88;;
64842;SDS011;51310;52.198;5.422;2022-07-04T12:41:07;2.40;;;1.20;;
64842;SDS011;51310;52.198;5.422;2022-07-04T12:46:13;3.13;;;0.95;;
64842;SDS011;51310;52.198;5.422;2022-07-04T12:48:49;3.40;;;1.17;;
64842;SDS011;51310;52.198;5.422;2022-07-04T12:51:19;3.03;;;1.30;;
64842;SDS011;51310;52.198;5.422;2022-07-04T12:53:52;5.28;;;1.52;;
64842;SDS011;51310;52.198;5.422;2022-07-04T12:56:32;2.97;;;1.10;;
64842;SDS011;51310;52.198;5.422;2022-07-04T12:59:16;2.83;;;0.90;;
64842;SDS011;51310;52.198;5.422;2022-07-04T13:01:43;2.80;;;1.00;;
64842;SDS011;51310;52.198;5.422;2022-07-04T13:04:10;2.90;;;1.05;;
64842;SDS011;51310;52.198;5.422;2022-07-04T13:06:38;3.22;;;1.02;;
64842;SDS011;51310;52.198;5.422;2022-07-04T13:09:05;3.20;;;1.02;;
64842;SDS011;51310;52.198;5.422;2022-07-04T13:11:34;3.97;;;1.52;;
64842;SDS011;51310;52.198;5.422;2022-07-04T13:14:20;4.78;;;1.20;;
64842;SDS011;51310;52.198;5.422;2022-07-04T13:16:46;2.75;;;1.42;;
64842;SDS011;51310;52.198;5.422;2022-07-04T13:19:12;3.63;;;1.25;;
64842;SDS011;51310;52.198;5.422;2022-07-04T13:21:38;2.37;;;0.87;;
64842;SDS011;51310;52.198;5.422;2022-07-04T13:24:04;2.23;;;1.07;;
64842;SDS011;51310;52.198;5.422;2022-07-04T13:26:31;3.05;;;1.40;;
64842;SDS011;51310;52.198;5.422;2022-07-04T13:28:57;4.90;;;1.20;;
64842;SDS011;51310;52.198;5.422;2022-07-04T13:31:23;5.13;;;1.02;;
64842;SDS011;51310;52.198;5.422;2022-07-04T13:33:49;2.42;;;0.82;;
64842;SDS011;51310;52.198;5.422;2022-07-04T13:36:15;2.13;;;1.02;;
64842;SDS011;51310;52.198;5.422;2022-07-04T13:38:43;5.95;;;1.63;;
64842;SDS011;51310;52.198;5.422;2022-07-04T13:41:08;2.20;;;1.15;;
64842;SDS011;51310;52.198;5.422;2022-07-04T13:43:34;2.80;;;0.93;;
64842;SDS011;51310;52.198;5.422;2022-07-04T13:46:00;5.68;;;1.33;;
64842;SDS011;51310;52.198;5.422;2022-07-04T13:48:28;2.55;;;1.10;;
64842;SDS011;51310;52.198;5.422;2022-07-04T13:50:53;3.95;;;0.90;;
64842;SDS011;51310;52.198;5.422;2022-07-04T13:53:19;2.50;;;0.90;;
64842;SDS011;51310;52.198;5.422;2022-07-04T13:55:45;3.67;;;0.88;;
64842;SDS011;51310;52.198;5.422;2022-07-04T13:58:11;1.90;;;0.93;;
64842;SDS011;51310;52.198;5.422;2022-07-04T14:00:38;3.10;;;1.20;;
64842;SDS011;51310;52.198;5.422;2022-07-04T14:03:06;5.00;;;1.25;;
64842;SDS011;51310;52.198;5.422;2022-07-04T14:05:32;1.60;;;0.85;;
64842;SDS011;51310;52.198;5.422;2022-07-04T14:07:59;1.80;;;0.90;;
64842;SDS011;51310;52.198;5.422;2022-07-04T14:10:25;2.00;;;0.90;;
64842;SDS011;51310;52.198;5.422;2022-07-04T14:12:51;7.47;;;1.70;;
64842;SDS011;51310;52.198;5.422;2022-07-04T14:15:16;3.20;;;1.17;;
64842;SDS011;51310;52.198;5.422;2022-07-04T14:17:43;3.20;;;1.03;;
64842;SDS011;51310;52.198;5.422;2022-07-04T14:20:10;3.47;;;1.27;;
64842;SDS011;51310;52.198;5.422;2022-07-04T14:22:37;2.75;;;0.95;;
64842;SDS011;51310;52.198;5.422;2022-07-04T14:25:04;2.30;;;1.00;;
64842;SDS011;51310;52.198;5.422;2022-07-04T14:27:32;3.33;;;1.10;;
64842;SDS011;51310;52.198;5.422;2022-07-04T14:29:58;4.00;;;1.10;;
64842;SDS011;51310;52.198;5.422;2022-07-04T14:32:24;4.10;;;1.20;;
64842;SDS011;51310;52.198;5.422;2022-07-04T14:34:50;3.03;;;0.83;;
64842;SDS011;51310;52.198;5.422;2022-07-04T14:37:17;2.00;;;0.90;;
64842;SDS011;51310;52.198;5.422;2022-07-04T14:39:43;2.03;;;0.93;;
64842;SDS011;51310;52.198;5.422;2022-07-04T14:42:09;1.70;;;0.90;;
64842;SDS011;51310;52.198;5.422;2022-07-04T14:44:35;2.40;;;0.98;;
64842;SDS011;51310;52.198;5.422;2022-07-04T14:47:04;3.90;;;1.00;;
64842;SDS011;51310;52.198;5.422;2022-07-04T14:49:31;3.35;;;1.30;;
64842;SDS011;51310;52.198;5.422;2022-07-04T14:51:57;3.95;;;1.40;;
64842;SDS011;51310;52.198;5.422;2022-07-04T14:54:24;2.27;;;1.40;;
64842;SDS011;51310;52.198;5.422;2022-07-04T14:56:50;3.07;;;1.10;;
64842;SDS011;51310;52.198;5.422;2022-07-04T14:59:17;4.93;;;1.25;;
64842;SDS011;51310;52.198;5.422;2022-07-04T15:01:43;3.45;;;0.93;;
64842;SDS011;51310;52.198;5.422;2022-07-04T15:04:09;1.65;;;0.90;;
64842;SDS011;51310;52.198;5.422;2022-07-04T15:06:35;2.63;;;1.08;;
64842;SDS011;51310;52.198;5.422;2022-07-04T15:09:04;1.73;;;1.00;;
64842;SDS011;51310;52.198;5.422;2022-07-04T15:11:31;3.78;;;1.17;;
64842;SDS011;51310;52.198;5.422;2022-07-04T15:13:58;2.97;;;1.00;;
64842;SDS011;51310;52.198;5.422;2022-07-04T15:16:24;4.18;;;1.17;;
64842;SDS011;51310;52.198;5.422;2022-07-04T15:18:54;2.05;;;1.10;;
64842;SDS011;51310;52.198;5.422;2022-07-04T15:21:20;2.88;;;0.98;;
64842;SDS011;51310;52.198;5.422;2022-07-04T15:24:05;2.13;;;0.90;;
64842;SDS011;51310;52.198;5.422;2022-07-04T15:26:39;3.83;;;1.27;;
64842;SDS011;51310;52.198;5.422;2022-07-04T15:29:16;2.00;;;1.00;;
64842;SDS011;51310;52.198;5.422;2022-07-04T15:31:46;2.45;;;0.80;;
64842;SDS011;51310;52.198;5.422;2022-07-04T15:34:13;4.65;;;1.70;;
64842;SDS011;51310;52.198;5.422;2022-07-04T15:36:41;3.00;;;1.08;;
64842;SDS011;51310;52.198;5.422;2022-07-04T15:39:08;2.30;;;1.30;;